Time;durP1;ratioP1;P1;durP2;ratioP2;P2;SDS_P1;SDS_P2;PMS_P1;PMS_P2;Temp;Humidity;BMP_temperature;BMP_pressure;BME280_temperature;BME280_humidity;BME280_pressure;Samples;Min_cycle;Max_cycle;Signal;HPM_P1;HPM_P2
2022/03/01 00:00:31;;;;;;;;;13.25;11.00;;;;;8.65;61.27;101224.38;5055309;28;45306;-72
2022/03/01 00:02:57;;;;;;;;;10.00;9.75;;;;;8.55;61.32;101207.44;5057002;28;45367;-73
2022/03/01 00:05:23;;;;;;;;;20.25;14.50;;;;;8.59;61.53;101229.28;5090053;27;45480;-73
2022/03/01 00:07:48;;;;;;;;;15.75;15.00;;;;;8.59;61.56;101238.81;5056980;28;45434;-73
2022/03/01 00:10:14;;;;;;;;;14.00;13.00;;;;;8.56;61.77;101243.06;5057164;28;45745;-72
2022/03/01 00:12:39;;;;;;;;;14.50;14.00;;;;;8.43;61.44;101238.03;5089288;27;46083;-72
2022/03/01 00:15:06;;;;;;;;;10.75;10.50;;;;;8.37;61.97;101240.31;5056998;28;45644;-73
2022/03/01 00:17:32;;;;;;;;;15.00;12.50;;;;;8.41;62.60;101255.31;5056673;28;45535;-73
2022/03/01 00:19:58;;;;;;;;;12.75;11.25;;;;;8.08;62.21;101215.44;5057358;28;45595;-72
2022/03/01 00:22:23;;;;;;;;;15.50;12.75;;;;;8.13;62.38;101235.66;5056460;28;45517;-73
2022/03/01 00:24:49;;;;;;;;;12.75;10.75;;;;;8.17;62.17;101249.72;5056729;28;45404;-73
2022/03/01 00:27:15;;;;;;;;;11.25;8.50;;;;;8.27;62.70;101274.50;5057342;28;45402;-72
2022/03/01 00:29:40;;;;;;;;;9.00;8.25;;;;;8.23;62.45;101269.97;5056934;28;45373;-73
2022/03/01 00:32:06;;;;;;;;;8.75;8.00;;;;;8.08;62.57;101246.66;5056781;28;46417;-72
2022/03/01 00:34:32;;;;;;;;;11.00;8.75;;;;;8.02;62.28;101249.84;5056472;28;45519;-72
2022/03/01 00:36:58;;;;;;;;;8.50;8.50;;;;;8.14;62.65;101265.19;5056598;28;45264;-72
2022/03/01 00:39:24;;;;;;;;;13.00;13.00;;;;;8.01;62.79;101249.75;5056806;28;45613;-72
2022/03/01 00:41:49;;;;;;;;;10.00;9.00;;;;;7.99;63.01;101244.47;5056138;28;46009;-72
2022/03/01 00:44:15;;;;;;;;;12.50;12.50;;;;;7.85;63.57;101229.88;5056177;28;45528;-72
2022/03/01 00:46:40;;;;;;;;;16.25;14.00;;;;;7.96;63.57;101252.13;5055455;28;45505;-73
2022/03/01 00:49:06;;;;;;;;;22.25;20.25;;;;;7.93;63.43;101263.25;5056947;28;45627;-73
2022/03/01 00:51:31;;;;;;;;;21.25;17.00;;;;;7.87;63.74;101256.84;5056724;28;45536;-72
2022/03/01 00:53:57;;;;;;;;;15.25;13.50;;;;;7.73;63.80;101246.59;5056182;28;45639;-72
2022/03/01 00:56:23;;;;;;;;;20.00;18.50;;;;;7.67;64.17;101235.88;5056430;28;45477;-72
2022/03/01 00:58:49;;;;;;;;;23.75;20.75;;;;;7.79;63.76;101261.66;5056497;28;45869;-72
2022/03/01 01:01:14;;;;;;;;;20.75;19.50;;;;;7.67;63.47;101250.59;5055911;28;45535;-72
2022/03/01 01:03:40;;;;;;;;;16.50;14.50;;;;;7.69;63.28;101241.16;5056250;28;45311;-71
2022/03/01 01:06:06;;;;;;;;;15.00;14.75;;;;;7.77;63.24;101248.56;5056412;28;45549;-73
2022/03/01 01:08:31;;;;;;;;;31.75;25.00;;;;;7.82;63.56;101258.31;5056065;28;45419;-72
2022/03/01 01:10:57;;;;;;;;;24.25;21.50;;;;;7.75;64.00;101242.38;5055966;28;46399;-72
2022/03/01 01:13:22;;;;;;;;;28.50;24.00;;;;;7.65;63.72;101236.63;5088890;27;45462;-72
2022/03/01 01:15:48;;;;;;;;;24.00;20.25;;;;;7.75;64.00;101268.38;5055847;28;45394;-72
2022/03/01 01:18:14;;;;;;;;;24.25;20.25;;;;;7.67;64.21;101267.09;5056114;28;45628;-72
2022/03/01 01:20:40;;;;;;;;;20.00;16.00;;;;;7.65;64.25;101271.31;5056064;28;46163;-73
2022/03/01 01:23:06;;;;;;;;;21.75;20.25;;;;;7.51;64.30;101260.19;5056056;28;45694;-73
2022/03/01 01:25:32;;;;;;;;;19.25;17.25;;;;;7.46;64.10;101246.06;5055923;28;45612;-72
2022/03/01 01:27:59;;;;;;;;;18.00;15.25;;;;;7.48;64.29;101247.03;5056055;28;45516;-72
2022/03/01 01:30:27;;;;;;;;;16.25;12.00;;;;;7.61;64.38;101263.28;5055386;28;46157;-72
2022/03/01 01:32:53;;;;;;;;;13.00;12.75;;;;;7.58;64.27;101261.41;5054948;28;45329;-72
2022/03/01 01:35:21;;;;;;;;;14.75;13.00;;;;;7.51;63.90;101252.38;5056219;28;45542;-72
2022/03/01 01:37:47;;;;;;;;;15.00;14.00;;;;;7.53;64.35;101260.25;5055673;28;45719;-72
2022/03/01 01:40:19;;;;;;;;;15.50;15.25;;;;;7.33;65.11;101228.88;5055316;28;46047;-72
2022/03/01 01:42:45;;;;;;;;;18.00;13.00;;;;;7.23;65.36;101216.22;5055138;28;45513;-72
2022/03/01 01:45:12;;;;;;;;;18.00;15.50;;;;;7.41;65.02;101257.00;5055360;28;46051;-72
2022/03/01 01:47:38;;;;;;;;;20.75;18.00;;;;;7.35;65.38;101261.06;5054991;28;45438;-72
2022/03/01 01:50:06;;;;;;;;;20.00;18.50;;;;;7.07;65.79;101219.69;5055557;28;46639;-72
2022/03/01 01:52:32;;;;;;;;;17.25;15.50;;;;;7.20;65.60;101239.41;5055467;28;45395;-72
2022/03/01 01:54:58;;;;;;;;;21.25;18.50;;;;;7.18;65.32;101228.06;5055123;28;45385;-73
2022/03/01 01:57:24;;;;;;;;;20.50;19.50;;;;;7.26;65.46;101244.97;5055658;28;45391;-73
2022/03/01 01:59:52;;;;;;;;;15.50;13.50;;;;;7.29;65.36;101252.03;5054045;28;45497;-72
2022/03/01 02:02:20;;;;;;;;;15.00;14.25;;;;;7.31;65.52;101250.41;5054834;28;45588;-73
2022/03/01 02:04:47;;;;;;;;;19.00;17.00;;;;;7.31;65.65;101260.81;5057206;28;45439;-73
2022/03/01 02:07:13;;;;;;;;;28.00;23.25;;;;;7.13;65.62;101230.41;5056827;28;45342;-73
2022/03/01 02:09:40;;;;;;;;;27.50;21.75;;;;;6.62;65.69;101151.41;5056696;28;45668;-72
2022/03/01 02:12:06;;;;;;;;;19.00;17.25;;;;;7.11;65.84;101236.34;5056798;28;45505;-73
2022/03/01 02:14:34;;;;;;;;;25.25;23.25;;;;;7.11;65.74;101245.03;5056688;28;45575;-72
2022/03/01 02:17:03;;;;;;;;;18.25;17.50;;;;;7.01;66.33;101231.44;5089651;27;45847;-73
2022/03/01 02:19:29;;;;;;;;;21.50;19.25;;;;;7.07;66.37;101247.38;5057025;28;46094;-73
2022/03/01 02:21:56;;;;;;;;;19.75;18.00;;;;;6.95;66.40;101232.88;5056377;28;45414;-72
2022/03/01 02:24:27;;;;;;;;;21.75;17.25;;;;;7.02;66.32;101254.88;5056575;28;45463;-73
2022/03/01 02:26:57;;;;;;;;;14.00;13.00;;;;;6.85;65.81;101228.00;5056503;28;45588;-72
2022/03/01 02:29:23;;;;;;;;;14.25;13.50;;;;;6.92;66.20;101242.19;5056485;28;46052;-73
2022/03/01 02:31:50;;;;;;;;;14.25;13.00;;;;;6.73;66.27;101227.31;5056470;28;45517;-73
2022/03/01 02:34:17;;;;;;;;;15.25;13.75;;;;;6.88;66.60;101251.53;5057067;28;45536;-73
2022/03/01 02:36:42;;;;;;;;;14.50;12.25;;;;;6.77;66.50;101230.16;5089208;27;45456;-72
2022/03/01 02:39:09;;;;;;;;;16.50;13.00;;;;;6.83;67.09;101245.19;5064291;28;46951;-73
2022/03/01 02:41:40;;;;;;;;;13.75;12.50;;;;;6.84;66.61;101246.97;5063359;28;45575;-73
2022/03/01 02:44:07;;;;;;;;;16.75;14.00;;;;;6.75;66.47;101231.78;5064379;28;46113;-73
2022/03/01 02:46:33;;;;;;;;;12.75;11.75;;;;;6.81;65.51;101239.03;5064785;28;45512;-73
2022/03/01 02:48:58;;;;;;;;;15.25;13.00;;;;;6.82;66.59;101239.91;5064096;28;45335;-73
2022/03/01 02:51:24;;;;;;;;;14.00;14.00;;;;;6.77;66.88;101235.34;5065220;28;45472;-73
2022/03/01 02:53:50;;;;;;;;;13.50;13.00;;;;;6.69;67.29;101221.03;5064750;28;45510;-73
2022/03/01 02:56:15;;;;;;;;;16.50;15.50;;;;;6.67;67.34;101220.06;5064588;28;45417;-72
2022/03/01 02:58:41;;;;;;;;;14.50;13.50;;;;;6.70;67.38;101233.19;5065241;28;45366;-73
2022/03/01 03:01:07;;;;;;;;;16.75;14.00;;;;;6.70;67.21;101233.19;5064270;28;45326;-73
2022/03/01 03:03:33;;;;;;;;;17.00;14.00;;;;;6.60;67.44;101224.81;5063349;28;45492;-73
2022/03/01 03:05:59;;;;;;;;;16.00;14.50;;;;;6.49;67.32;101201.75;5064746;28;45554;-72
2022/03/01 03:08:25;;;;;;;;;15.25;14.00;;;;;6.63;67.11;101227.59;5064255;28;45518;-73
2022/03/01 03:10:51;;;;;;;;;21.75;21.00;;;;;6.50;67.19;101208.72;5064245;28;45393;-73
2022/03/01 03:13:18;;;;;;;;;29.25;22.50;;;;;6.55;67.37;101202.09;5064719;28;45377;-73
2022/03/01 03:15:44;;;;;;;;;53.00;42.00;;;;;6.62;67.31;101215.41;5064492;28;45475;-72
2022/03/01 03:18:09;;;;;;;;;58.25;43.75;;;;;6.52;67.15;101198.41;5059251;28;45463;-73
2022/03/01 03:20:35;;;;;;;;;22.75;21.75;;;;;6.56;67.20;101208.16;5055854;28;45477;-73
2022/03/01 03:23:01;;;;;;;;;18.50;16.75;;;;;6.55;67.33;101206.41;5056253;28;45534;-72
2022/03/01 03:25:26;;;;;;;;;16.25;13.50;;;;;6.47;67.54;101203.38;5054591;28;45608;-72
2022/03/01 03:27:52;;;;;;;;;16.25;14.25;;;;;6.45;67.60;101197.19;5055309;28;45673;-73
2022/03/01 03:30:17;;;;;;;;;12.50;11.50;;;;;6.49;67.37;101206.06;5055817;28;45396;-72
2022/03/01 03:32:43;;;;;;;;;12.25;11.75;;;;;6.46;67.26;101200.69;5071330;28;45491;-73
2022/03/01 03:35:09;;;;;;;;;10.00;8.75;;;;;6.46;68.11;101204.16;5056080;28;45377;-72
2022/03/01 03:37:35;;;;;;;;;11.00;9.75;;;;;6.34;67.57;101183.59;5054077;28;47571;-73
2022/03/01 03:40:03;;;;;;;;;11.75;10.00;;;;;6.34;67.63;101186.19;5055431;28;45989;-72
2022/03/01 03:42:28;;;;;;;;;14.00;12.00;;;;;6.31;68.01;101177.34;5054886;28;45461;-74
2022/03/01 03:44:54;;;;;;;;;11.75;11.75;;;;;6.40;67.61;101195.13;5055699;28;45393;-74
2022/03/01 03:47:19;;;;;;;;;13.00;13.00;;;;;6.36;68.12;101188.88;5055503;28;45812;-73
2022/03/01 03:49:45;;;;;;;;;13.50;12.00;;;;;6.11;68.11;101140.78;5055640;28;45362;-73
2022/03/01 03:52:10;;;;;;;;;12.25;11.50;;;;;6.32;67.96;101176.53;5054394;28;45605;-73
2022/03/01 03:54:36;;;;;;;;;12.25;11.00;;;;;6.28;67.43;101169.38;5056580;28;45455;-72
2022/03/01 03:57:07;;;;;;;;;14.75;12.00;;;;;6.32;68.08;101177.41;5059422;28;46143;-72
2022/03/01 03:59:34;;;;;;;;;14.75;13.75;;;;;6.38;68.44;101182.06;5058781;28;45375;-72
2022/03/01 04:02:00;;;;;;;;;14.00;12.50;;;;;6.24;68.05;101163.13;5058445;28;45604;-72
2022/03/01 04:04:26;;;;;;;;;13.75;13.00;;;;;6.24;68.35;101164.81;5058968;28;45569;-72
2022/03/01 04:06:51;;;;;;;;;13.50;11.00;;;;;6.21;67.88;101165.56;5058777;28;45390;-72
2022/03/01 04:09:17;;;;;;;;;12.00;11.00;;;;;6.29;68.12;101186.75;5058680;28;45434;-73
2022/03/01 04:11:42;;;;;;;;;16.50;11.25;;;;;5.98;68.60;101141.75;5059535;28;45582;-73
2022/03/01 04:14:08;;;;;;;;;14.25;13.00;;;;;6.21;68.12;101187.97;5058534;28;45652;-72
2022/03/01 04:16:34;;;;;;;;;18.00;16.00;;;;;6.12;68.66;101186.66;5058491;28;45451;-72
2022/03/01 04:18:59;;;;;;;;;27.50;24.25;;;;;5.96;68.73;101164.09;5058816;28;45373;-72
2022/03/01 04:21:25;;;;;;;;;22.50;19.75;;;;;5.92;68.92;101161.22;5059042;28;45643;-74
2022/03/01 04:23:50;;;;;;;;;21.25;19.00;;;;;6.00;69.24;101177.28;5058763;28;45358;-72
2022/03/01 04:26:16;;;;;;;;;22.50;21.75;;;;;6.03;68.62;101182.63;5059137;28;45647;-72
2022/03/01 04:28:42;;;;;;;;;35.00;30.25;;;;;5.95;68.89;101174.41;5058958;28;45247;-72
2022/03/01 04:31:08;;;;;;;;;22.00;21.00;;;;;5.96;68.53;101179.66;5059004;28;45226;-73
2022/03/01 04:33:34;;;;;;;;;16.75;13.00;;;;;6.03;68.71;101193.91;5058646;28;45639;-72
2022/03/01 04:36:02;;;;;;;;;17.00;15.00;;;;;6.01;68.50;101174.78;5058093;28;45391;-72
2022/03/01 04:38:28;;;;;;;;;17.50;15.50;;;;;5.95;69.12;101172.72;5058973;28;45338;-72
2022/03/01 04:40:54;;;;;;;;;18.25;13.75;;;;;5.83;68.80;101153.81;5058533;28;45791;-72
2022/03/01 04:43:20;;;;;;;;;14.50;12.00;;;;;6.03;69.30;101193.00;5058591;28;45694;-72
2022/03/01 04:45:46;;;;;;;;;17.00;14.75;;;;;5.85;68.51;101159.06;5058635;28;45982;-73
2022/03/01 04:48:12;;;;;;;;;14.75;12.25;;;;;5.88;68.96;101167.91;5057601;28;45459;-72
2022/03/01 04:50:37;;;;;;;;;14.50;12.25;;;;;6.03;69.09;101196.50;5058225;28;45601;-72
2022/03/01 04:53:03;;;;;;;;;22.50;20.00;;;;;5.94;68.91;101176.06;5057345;28;45495;-72
2022/03/01 04:55:29;;;;;;;;;15.75;15.25;;;;;6.03;68.66;101190.41;5058053;28;45635;-72
2022/03/01 04:57:55;;;;;;;;;303.25;228.75;;;;;5.97;68.54;101180.59;5056854;28;46211;-71
2022/03/01 05:00:21;;;;;;;;;277.25;216.50;;;;;6.04;68.96;101192.19;5056110;28;45497;-71
2022/03/01 05:02:47;;;;;;;;;55.00;40.75;;;;;6.07;68.93;101189.78;5056234;28;45477;-72
2022/03/01 05:05:14;;;;;;;;;46.50;38.25;;;;;5.94;68.81;101167.41;5053406;28;46289;-72
2022/03/01 05:07:42;;;;;;;;;61.50;48.25;;;;;6.07;68.69;101190.69;5055288;28;45513;-72
2022/03/01 05:10:09;;;;;;;;;34.50;27.75;;;;;6.03;68.88;101190.41;5056518;28;45476;-72
2022/03/01 05:12:52;;;;;;;;;40.25;35.00;;;;;5.95;68.90;101177.91;5056159;28;45548;-72
2022/03/01 05:15:18;;;;;;;;;74.25;55.50;;;;;5.97;68.89;101180.59;5057520;28;45526;-72
2022/03/01 05:17:46;;;;;;;;;75.50;54.00;;;;;5.88;68.85;101162.75;5057841;28;45304;-72
2022/03/01 05:20:13;;;;;;;;;81.75;59.50;;;;;5.98;69.11;101180.66;5057068;28;45510;-73
2022/03/01 05:22:40;;;;;;;;;37.25;32.75;;;;;5.99;68.79;101176.38;5042306;28;45476;-72
2022/03/01 05:25:09;;;;;;;;;34.25;30.25;;;;;5.93;68.66;101156.13;5058389;28;45540;-72
2022/03/01 05:27:36;;;;;;;;;28.50;27.00;;;;;5.83;68.66;101134.75;5058196;28;45327;-72
2022/03/01 05:30:02;;;;;;;;;36.00;31.25;;;;;5.96;69.08;101156.34;5058366;28;45339;-72
2022/03/01 05:32:28;;;;;;;;;59.75;45.25;;;;;5.93;68.89;101158.72;5058533;28;45505;-72
2022/03/01 05:34:53;;;;;;;;;32.00;27.25;;;;;5.73;69.09;101126.44;5057181;28;45992;-73
2022/03/01 05:37:19;;;;;;;;;21.75;19.00;;;;;5.90;69.59;101155.06;5057950;28;45262;-72
2022/03/01 05:39:45;;;;;;;;;17.25;16.50;;;;;5.85;68.96;101152.19;5058624;28;45273;-72
2022/03/01 05:42:10;;;;;;;;;13.75;13.00;;;;;5.85;69.27;101164.25;5058425;28;45466;-72
2022/03/01 05:44:37;;;;;;;;;16.50;15.50;;;;;5.83;69.52;101156.41;5058251;28;45453;-72
2022/03/01 05:47:03;;;;;;;;;36.75;33.25;;;;;5.68;69.08;101135.63;5057427;28;45384;-73
2022/03/01 05:49:28;;;;;;;;;20.50;20.00;;;;;5.77;69.23;101150.88;5058229;28;45442;-72
2022/03/01 05:51:54;;;;;;;;;17.25;13.75;;;;;5.58;69.35;101123.84;5057879;28;45485;-72
2022/03/01 05:54:19;;;;;;;;;18.00;16.75;;;;;5.71;69.17;101147.88;5056993;28;46504;-72
2022/03/01 05:56:45;;;;;;;;;23.50;20.75;;;;;5.75;69.44;101149.88;5057403;28;45507;-72
2022/03/01 05:59:10;;;;;;;;;18.00;17.50;;;;;5.64;69.53;101141.44;5056659;28;45547;-72
2022/03/01 06:01:36;;;;;;;;;21.00;19.75;;;;;5.73;69.43;101152.38;5056873;28;45547;-73
2022/03/01 06:04:02;;;;;;;;;19.25;17.00;;;;;5.57;69.68;101135.03;5057488;28;45550;-72
2022/03/01 06:06:28;;;;;;;;;25.00;19.00;;;;;5.57;69.55;101135.03;5056821;28;45319;-72
2022/03/01 06:08:53;;;;;;;;;28.75;27.75;;;;;5.53;69.87;101137.31;5056927;28;45481;-72
2022/03/01 06:11:19;;;;;;;;;32.50;30.50;;;;;5.47;69.75;101126.59;5057163;28;45372;-72
2022/03/01 06:13:45;;;;;;;;;25.50;23.25;;;;;5.44;69.94;101129.00;5056732;28;45591;-72
2022/03/01 06:16:10;;;;;;;;;30.25;26.25;;;;;5.45;70.07;101143.75;5056122;28;45498;-72
2022/03/01 06:18:36;;;;;;;;;95.67;78.33;;;;;5.46;70.55;101142.97;5056537;28;45211;-72
2022/03/01 06:21:05;;;;;;;;;41.25;37.00;;;;;5.48;69.53;101150.00;5056836;28;45303;-72
2022/03/01 06:23:32;;;;;;;;;34.00;30.25;;;;;5.54;70.10;101155.56;5055984;27;45663;-72
2022/03/01 06:25:57;;;;;;;;;25.75;21.00;;;;;5.51;67.96;101150.22;5056385;28;45484;-72
2022/03/01 06:28:23;;;;;;;;;34.50;24.50;;;;;5.54;68.84;101147.78;5056559;28;45473;-72
2022/03/01 06:30:49;;;;;;;;;34.25;30.25;;;;;5.66;67.84;101160.56;5057232;28;45398;-72
2022/03/01 06:33:17;;;;;;;;;54.75;42.75;;;;;5.63;69.34;101142.28;5055863;28;45662;-72
2022/03/01 06:35:44;;;;;;;;;56.25;46.75;;;;;5.73;69.36;101149.78;5048236;28;45655;-72
2022/03/01 06:38:10;;;;;;;;;58.50;47.25;;;;;5.86;69.70;101171.25;5056720;28;45592;-72
2022/03/01 06:40:36;;;;;;;;;83.75;60.75;;;;;5.86;69.14;101158.28;5055662;28;45438;-72
2022/03/01 06:43:03;;;;;;;;;79.25;57.25;;;;;5.85;68.94;101147.03;5056170;28;46069;-72
2022/03/01 06:45:28;;;;;;;;;73.75;57.50;;;;;5.87;69.05;101134.13;5056078;28;45596;-73
2022/03/01 06:47:54;;;;;;;;;56.50;45.25;;;;;5.98;69.29;101153.84;5056843;28;45365;-73
2022/03/01 06:50:20;;;;;;;;;65.75;50.75;;;;;6.05;69.02;101152.47;5056844;28;45453;-72
2022/03/01 06:52:46;;;;;;;;;55.00;45.00;;;;;6.12;68.96;101158.13;5088939;27;47748;-72
2022/03/01 06:55:12;;;;;;;;;62.00;44.25;;;;;6.15;69.04;101160.91;5055574;28;45418;-73
2022/03/01 06:57:40;;;;;;;;;16.75;11.75;;;;;6.13;68.79;101159.91;5056583;28;45481;-72
2022/03/01 07:00:07;;;;;;;;;63.75;52.25;;;;;6.19;68.70;101169.75;5056548;28;45495;-72
2022/03/01 07:02:38;;;;;;;;;91.00;71.67;;;;;6.19;68.37;101154.19;5055778;28;46700;-73
2022/03/01 07:05:07;;;;;;;;;59.75;49.00;;;;;6.30;68.33;101147.00;5055497;28;45452;-72
2022/03/01 07:07:39;;;;;;;;;85.00;66.67;;;;;6.41;68.15;101145.03;5055012;28;45489;-71
2022/03/01 07:10:08;;;;;;;;;42.25;37.00;;;;;6.65;66.99;101155.91;5053922;28;45447;-72
2022/03/01 07:12:36;;;;;;;;;78.50;60.75;;;;;6.67;67.05;101130.91;5055544;28;45485;-73
2022/03/01 07:15:06;;;;;;;;;85.33;65.33;;;;;6.79;66.92;101123.78;5053380;28;45472;-71
2022/03/01 07:17:37;;;;;;;;;74.00;57.25;;;;;7.01;66.75;101149.22;5063064;28;45371;-72
2022/03/01 07:20:04;;;;;;;;;81.00;64.00;;;;;7.09;66.47;101155.72;5060027;28;45404;-72
2022/03/01 07:22:30;;;;;;;;;82.33;61.67;;;;;7.00;66.17;101113.63;5053958;28;45756;-72
2022/03/01 07:24:56;;;;;;;;;73.25;56.75;;;;;7.14;66.18;101132.56;5055514;28;45520;-73
2022/03/01 07:27:21;;;;;;;;;61.75;49.00;;;;;7.19;65.80;101131.09;5050663;28;45640;-73
2022/03/01 07:29:47;;;;;;;;;47.25;39.25;;;;;7.31;65.33;101141.25;5065527;28;45579;-73
2022/03/01 07:32:13;;;;;;;;;40.75;37.50;;;;;7.41;65.40;101147.84;5083778;27;45456;-72
2022/03/01 07:34:38;;;;;;;;;56.25;45.50;;;;;6.72;64.99;101017.78;5056132;28;45615;-72
2022/03/01 07:37:06;;;;;;;;;52.25;39.75;;;;;7.65;64.65;101166.41;5082172;27;45496;-74
2022/03/01 07:39:32;;;;;;;;;63.00;50.00;;;;;7.67;64.25;101156.97;5057956;28;45537;-73
2022/03/01 07:41:58;;;;;;;;;76.00;57.25;;;;;7.88;63.96;101173.69;5056438;28;46935;-73
2022/03/01 07:44:23;;;;;;;;;75.00;58.00;;;;;7.98;63.75;101162.03;5058746;28;45396;-73
2022/03/01 07:46:49;;;;;;;;;46.75;37.50;;;;;8.10;62.87;101147.03;5058855;28;45485;-74
2022/03/01 07:49:14;;;;;;;;;19.75;17.75;;;;;8.41;62.42;101166.78;5057562;28;45724;-74
2022/03/01 07:51:41;;;;;;;;;23.00;21.00;;;;;8.64;61.91;101175.72;5059022;28;45501;-73
2022/03/01 07:54:06;;;;;;;;;22.00;18.50;;;;;8.66;61.45;101145.41;5058672;28;45618;-72
2022/03/01 07:56:32;;;;;;;;;22.00;21.25;;;;;8.93;61.09;101165.75;5058962;28;45523;-73
2022/03/01 07:58:58;;;;;;;;;27.50;26.00;;;;;9.20;60.68;101176.56;5059293;28;45461;-72
2022/03/01 08:01:23;;;;;;;;;34.75;28.00;;;;;9.34;60.58;101171.97;5059161;28;45558;-73
2022/03/01 08:03:49;;;;;;;;;23.25;22.25;;;;;9.45;60.38;101160.31;5058858;28;45500;-73
2022/03/01 08:06:16;;;;;;;;;32.50;28.25;;;;;10.30;59.07;101169.16;5059161;28;45474;-74
2022/03/01 08:08:42;;;;;;;;;36.25;32.25;;;;;11.06;56.57;101154.69;5056513;28;45981;-72
2022/03/01 08:11:08;;;;;;;;;29.75;28.25;;;;;12.63;53.77;101161.03;5057534;28;45389;-71
2022/03/01 08:13:34;;;;;;;;;48.25;39.00;;;;;15.53;47.16;101145.66;5038717;28;45410;-73
2022/03/01 08:16:00;;;;;;;;;46.00;36.25;;;;;17.32;42.86;101127.38;5049848;28;45450;-74
2022/03/01 08:18:26;;;;;;;;;57.00;44.25;;;;;18.53;39.73;101122.31;5058209;28;45643;-71
2022/03/01 08:20:52;;;;;;;;;47.25;39.25;;;;;18.11;40.37;101127.31;4990698;28;46736;-72
2022/03/01 08:23:18;;;;;;;;;62.25;48.25;;;;;17.38;40.76;101117.75;5036396;28;45368;-72
2022/03/01 08:25:44;;;;;;;;;52.25;42.25;;;;;16.86;41.28;101133.81;5037008;28;45345;-72
2022/03/01 08:28:10;;;;;;;;;62.00;48.00;;;;;16.14;42.76;101143.25;5038850;28;45510;-72
2022/03/01 08:30:36;;;;;;;;;162.00;140.75;;;;;16.80;42.06;101122.28;5038432;28;45386;-72
2022/03/01 08:33:03;;;;;;;;;60.33;46.33;;;;;18.17;40.19;101137.06;5038323;28;45751;-72
2022/03/01 08:35:32;;;;;;;;;46.25;37.25;;;;;20.01;36.10;101121.13;5038838;28;45494;-72
2022/03/01 08:38:02;;;;;;;;;45.50;38.50;;;;;20.57;34.18;101061.81;5038367;28;45379;-72
2022/03/01 08:40:29;;;;;;;;;52.00;42.75;;;;;21.95;32.30;101118.69;5037896;28;46243;-72
2022/03/01 08:42:55;;;;;;;;;65.00;49.75;;;;;22.49;31.67;101117.34;5036929;28;45399;-73
2022/03/01 08:45:21;;;;;;;;;61.25;48.50;;;;;21.11;33.60;101105.88;5033909;28;45394;-73
2022/03/01 08:47:46;;;;;;;;;61.75;49.00;;;;;21.16;33.82;101115.59;5026883;28;45533;-73
2022/03/01 08:50:12;;;;;;;;;58.00;46.50;;;;;21.95;33.61;101091.22;5026490;28;45480;-74
2022/03/01 08:52:39;;;;;;;;;49.75;41.25;;;;;22.82;32.02;101100.13;5027313;28;45906;-74
2022/03/01 08:55:09;;;;;;;;;38.50;33.25;;;;;23.31;31.59;101109.31;5023749;28;45946;-73
2022/03/01 08:57:35;;;;;;;;;41.00;35.50;;;;;22.51;32.39;101110.25;5041348;28;45684;-72
2022/03/01 09:00:01;;;;;;;;;39.50;35.50;;;;;21.98;32.88;101105.34;5025489;28;46605;-72
2022/03/01 09:02:27;;;;;;;;;38.25;34.25;;;;;21.96;33.15;101117.78;5027799;28;45414;-75
2022/03/01 09:04:52;;;;;;;;;30.25;27.75;;;;;21.14;33.97;101093.47;5026170;28;45620;-72
2022/03/01 09:07:18;;;;;;;;;33.50;29.50;;;;;21.18;35.02;101105.84;5029154;28;45486;-72
2022/03/01 09:09:43;;;;;;;;;39.00;32.25;;;;;22.53;32.38;101089.81;5028546;28;45413;-76
2022/03/01 09:12:09;;;;;;;;;43.25;34.50;;;;;23.91;30.08;101085.28;5027776;28;45539;-76
2022/03/01 09:14:35;;;;;;;;;39.00;34.25;;;;;23.72;29.48;101014.47;5027754;28;45558;-77
2022/03/01 09:17:00;;;;;;;;;37.50;33.50;;;;;24.12;29.46;101070.72;5027230;28;45406;-76
2022/03/01 09:19:26;;;;;;;;;33.75;30.50;;;;;25.42;28.50;101092.22;5017879;28;46350;-76
2022/03/01 09:21:51;;;;;;;;;30.00;29.50;;;;;26.38;27.11;101075.53;5016818;28;45363;-76
2022/03/01 09:24:17;;;;;;;;;27.67;24.00;;;;;27.85;24.76;101078.28;5034900;28;45932;-76
2022/03/01 09:26:42;;;;;;;;;24.00;22.33;;;;;28.44;24.14;101068.25;5052767;28;45999;-77
2022/03/01 09:29:08;;;;;;;;;26.33;23.33;;;;;28.64;24.07;101086.38;5036652;28;45593;-77
2022/03/01 09:31:34;;;;;;;;;28.75;27.00;;;;;28.81;24.13;101080.34;5037605;28;45394;-77
2022/03/01 09:33:59;;;;;;;;;24.00;23.33;;;;;29.17;23.79;101080.81;5037576;28;45454;-77
2022/03/01 09:36:25;;;;;;;;;26.33;23.33;;;;;29.22;22.92;101072.56;5037568;28;45557;-74
2022/03/01 09:38:51;;;;;;;;;30.25;27.25;;;;;28.15;22.65;101014.66;5037567;28;46255;-78
2022/03/01 09:41:16;;;;;;;;;40.00;34.75;;;;;28.30;22.06;101048.13;5037180;28;45458;-77
2022/03/01 09:43:43;;;;;;;;;42.50;35.25;;;;;28.06;23.02;101083.94;5036394;28;45485;-77
2022/03/01 09:46:09;;;;;;;;;35.50;30.00;;;;;27.71;23.17;101085.94;5038089;28;45528;-77
2022/03/01 09:48:38;;;;;;;;;22.00;20.00;;;;;26.92;22.99;100990.97;5037672;28;46278;-77
2022/03/01 09:51:06;;;;;;;;;23.67;22.00;;;;;27.47;23.34;101098.34;5037916;28;45221;-77
2022/03/01 09:53:32;;;;;;;;;18.67;18.00;;;;;27.25;22.20;101015.84;5036895;28;45508;-77
2022/03/01 09:56:02;;;;;;;;;16.33;15.67;;;;;25.97;24.09;101051.63;5037863;28;45517;-77
2022/03/01 09:58:28;;;;;;;;;19.33;18.33;;;;;24.92;25.88;101068.31;5035886;28;45715;-77
2022/03/01 10:00:53;;;;;;;;;25.33;24.00;;;;;24.47;27.37;101036.25;5037445;28;45296;-77
2022/03/01 10:03:20;;;;;;;;;29.25;27.75;;;;;23.86;29.23;101088.97;5037395;28;45229;-77
2022/03/01 10:05:46;;;;;;;;;27.50;26.00;;;;;23.45;30.03;101075.31;5036570;28;45346;-77
2022/03/01 10:08:18;;;;;;;;;25.50;24.00;;;;;23.97;28.60;101090.56;5052742;28;46849;-77
2022/03/01 10:10:47;;;;;;;;;31.50;29.50;;;;;24.35;28.21;101093.44;5037637;28;45260;-76
2022/03/01 10:13:20;;;;;;;;;35.50;30.50;;;;;24.38;27.94;101067.56;5036081;28;45501;-77
2022/03/01 10:15:45;;;;;;;;;34.75;30.00;;;;;24.46;27.19;101030.03;5036159;28;45568;-77
2022/03/01 10:18:14;;;;;;;;;23.67;23.67;;;;;24.53;26.69;101033.47;5037072;28;46580;-77
2022/03/01 10:20:41;;;;;;;;;23.75;22.50;;;;;24.04;26.80;100975.69;5037207;28;45319;-77
2022/03/01 10:23:08;;;;;;;;;28.25;25.25;;;;;24.70;27.09;101075.91;5036887;28;45524;-77
2022/03/01 10:25:39;;;;;;;;;25.00;23.67;;;;;24.77;26.53;101065.06;5036812;28;45481;-77
2022/03/01 10:28:05;;;;;;;;;31.50;29.25;;;;;24.74;26.94;101056.22;5037182;28;45516;-77
2022/03/01 10:30:33;;;;;;;;;37.50;32.50;;;;;25.17;27.24;101071.34;5052658;28;45585;-77
2022/03/01 10:33:04;;;;;;;;;60.50;49.75;;;;;25.25;26.72;101021.28;5052208;28;45414;-77
2022/03/01 10:35:29;;;;;;;;;69.50;55.50;;;;;25.75;26.04;101037.88;5037198;28;45323;-77
2022/03/01 10:37:55;;;;;;;;;49.75;42.00;;;;;26.36;25.41;101040.78;5036915;28;46171;-77
2022/03/01 10:40:22;;;;;;;;;56.50;45.50;;;;;26.99;25.05;101051.50;5036745;28;45682;-76
2022/03/01 10:43:12;;;;;;;;;46.25;38.50;;;;;27.71;25.34;101046.53;5027044;28;45363;-76
2022/03/01 10:45:39;;;;;;;;;30.00;29.75;;;;;27.87;24.35;101003.06;5026026;28;45359;-76
2022/03/01 10:48:07;;;;;;;;;29.67;25.00;;;;;28.26;23.61;101025.00;5025130;28;45494;-75
2022/03/01 10:50:33;;;;;;;;;25.00;24.33;;;;;28.53;23.46;101023.16;5026382;28;45486;-75
2022/03/01 10:52:59;;;;;;;;;18.33;17.33;;;;;28.56;23.12;100995.28;5024257;28;45513;-75
2022/03/01 10:55:31;;;;;;;;;25.67;25.67;;;;;28.84;22.77;101011.22;5048697;28;45525;-75
2022/03/01 10:58:05;;;;;;;;;26.67;22.33;;;;;28.97;22.90;101008.94;5026683;28;45505;-74
2022/03/01 11:00:35;;;;;;;;;25.00;22.00;;;;;28.89;22.38;101001.16;5026137;28;45915;-75
2022/03/01 11:03:08;;;;;;;;;24.67;23.67;;;;;29.10;22.50;101012.88;5030772;28;45652;-76
2022/03/01 11:05:36;;;;;;;;;43.00;35.75;;;;;28.96;21.00;101001.78;5024774;28;45628;-75
2022/03/01 11:08:09;;;;;;;;;48.50;39.25;;;;;28.81;21.73;101007.75;5025014;28;45536;-73
2022/03/01 11:10:38;;;;;;;;;30.25;30.00;;;;;28.48;22.25;100983.91;5026327;28;45455;-73